Time;durP1;ratioP1;P1;durP2;ratioP2;P2;SDS_P1;SDS_P2;PMS_P1;PMS_P2;Temp;Humidity;BMP_temperature;BMP_pressure;BME280_temperature;BME280_humidity;BME280_pressure;Samples;Min_cycle;Max_cycle;Signal;HPM_P1;HPM_P2
2023/02/09 00:02:22;;;;;;;8.70;5.37;;;;;;;;;;5082323;28;20545;-86
2023/02/09 00:05:27;;;;;;;8.47;4.77;;;;;;;;;;5071080;28;20561;-87
2023/02/09 00:08:33;;;;;;;9.27;5.40;;;;;;;;;;5071419;28;20545;-86
2023/02/09 00:14:59;;;;;;;9.57;5.13;;;;;;;;;;5098755;28;20542;-86
2023/02/09 00:18:03;;;;;;;6.90;3.93;;;;;;;;;;5098197;28;20604;-87
2023/02/09 00:21:10;;;;;;;7.67;4.63;;;;;;;;;;5074563;28;20553;-86
2023/02/09 00:24:14;;;;;;;10.53;4.60;;;;;;;;;;5085802;28;20616;-87
2023/02/09 00:27:18;;;;;;;11.87;5.13;;;;;;;;;;5097092;28;21132;-86
2023/02/09 00:30:23;;;;;;;7.47;4.33;;;;;;;;;;5075126;28;20549;-86
2023/02/09 00:33:27;;;;;;;8.47;4.57;;;;;;;;;;5085967;28;20615;-86
2023/02/09 00:36:32;;;;;;;8.23;4.50;;;;;;;;;;5074561;28;20541;-87
2023/02/09 00:39:36;;;;;;;9.33;4.87;;;;;;;;;;5074305;28;20557;-86
2023/02/09 00:42:42;;;;;;;9.47;4.87;;;;;;;;;;5074510;28;20541;-87
2023/02/09 00:45:47;;;;;;;7.77;4.90;;;;;;;;;;5097738;28;21084;-86
2023/02/09 00:48:51;;;;;;;9.57;4.70;;;;;;;;;;5085651;28;20604;-86
2023/02/09 00:51:56;;;;;;;8.57;4.97;;;;;;;;;;5073913;28;20542;-86
2023/02/09 00:55:00;;;;;;;7.57;4.57;;;;;;;;;;5097403;28;20549;-86
2023/02/09 00:58:04;;;;;;;10.23;5.20;;;;;;;;;;5085087;28;20597;-87
2023/02/09 01:01:12;;;;;;;10.57;4.70;;;;;;;;;;5074281;28;20562;-86
2023/02/09 01:04:16;;;;;;;9.97;5.00;;;;;;;;;;5097080;28;20631;-87
2023/02/09 01:07:20;;;;;;;8.57;4.67;;;;;;;;;;5096611;28;20533;-85
2023/02/09 01:10:24;;;;;;;8.40;5.07;;;;;;;;;;5084936;28;20542;-86
2023/02/09 01:13:28;;;;;;;7.23;4.17;;;;;;;;;;5085245;28;20612;-86
2023/02/09 01:16:33;;;;;;;10.17;4.87;;;;;;;;;;5096367;28;20550;-86
2023/02/09 01:19:37;;;;;;;8.93;4.40;;;;;;;;;;5085595;28;20601;-86
2023/02/09 01:22:42;;;;;;;7.33;4.40;;;;;;;;;;5085363;28;20549;-86
2023/02/09 01:25:46;;;;;;;9.10;4.73;;;;;;;;;;5084824;28;20956;-87
2023/02/09 01:28:52;;;;;;;7.20;4.60;;;;;;;;;;5072646;28;20585;-86
2023/02/09 01:31:56;;;;;;;10.00;4.83;;;;;;;;;;5073620;28;20915;-87
2023/02/09 01:35:00;;;;;;;11.17;4.73;;;;;;;;;;5084611;28;20568;-86
2023/02/09 01:38:05;;;;;;;8.40;4.67;;;;;;;;;;5095302;28;20605;-87
2023/02/09 01:41:09;;;;;;;8.93;4.60;;;;;;;;;;5084665;28;20537;-86
2023/02/09 01:44:14;;;;;;;10.33;5.17;;;;;;;;;;5073295;28;20628;-87
2023/02/09 01:47:19;;;;;;;9.47;5.20;;;;;;;;;;5083997;28;20615;-87
2023/02/09 01:50:24;;;;;;;8.30;4.77;;;;;;;;;;5083925;28;21096;-86
2023/02/09 01:53:29;;;;;;;8.27;4.30;;;;;;;;;;5095772;28;20965;-86
2023/02/09 01:56:37;;;;;;;8.30;5.07;;;;;;;;;;5072307;28;20545;-86
2023/02/09 01:59:48;;;;;;;13.40;5.77;;;;;;;;;;5095378;28;20645;-86
2023/02/09 02:03:06;;;;;;;7.33;4.50;;;;;;;;;;5084200;28;20624;-86
2023/02/09 02:06:14;;;;;;;8.13;4.67;;;;;;;;;;5084637;28;20542;-86
2023/02/09 02:09:18;;;;;;;8.70;4.97;;;;;;;;;;5083912;28;20545;-86
2023/02/09 02:12:23;;;;;;;7.75;4.15;;;;;;;;;;5084417;28;20902;-86
2023/02/09 02:15:32;;;;;;;10.87;4.97;;;;;;;;;;5083612;28;20175;-87
2023/02/09 02:19:15;;;;;;;10.57;5.03;;;;;;;;;;5083677;28;20633;-86
2023/02/09 02:22:38;;;;;;;12.23;5.00;;;;;;;;;;5083447;28;20542;-86
2023/02/09 02:26:04;;;;;;;7.87;4.90;;;;;;;;;;5072483;28;21105;-87
2023/02/09 02:29:14;;;;;;;7.78;5.10;;;;;;;;;;5072317;28;20546;-86
2023/02/09 02:32:34;;;;;;;10.25;5.15;;;;;;;;;;5072413;28;20174;-86
2023/02/09 02:35:49;;;;;;;9.87;5.17;;;;;;;;;;5095713;28;20183;-88
2023/02/09 02:39:18;;;;;;;13.07;5.13;;;;;;;;;;5096064;28;20636;-86
2023/02/09 02:42:47;;;;;;;8.82;4.90;;;;;;;;;;5084007;28;20183;-86
2023/02/09 02:46:03;;;;;;;9.15;4.95;;;;;;;;;;5095478;28;20171;-86
2023/02/09 02:49:37;;;;;;;7.68;4.82;;;;;;;;;;5083400;28;20191;-86
2023/02/09 02:52:45;;;;;;;8.13;4.82;;;;;;;;;;5072140;28;20186;-86
2023/02/09 02:55:51;;;;;;;14.02;4.93;;;;;;;;;;5084088;28;20187;-87
2023/02/09 02:58:58;;;;;;;10.05;5.05;;;;;;;;;;5083317;28;20210;-86
2023/02/09 03:02:08;;;;;;;11.15;4.90;;;;;;;;;;5072351;28;20175;-86
2023/02/09 03:05:14;;;;;;;9.48;5.10;;;;;;;;;;5096281;28;20520;-86
2023/02/09 03:08:18;;;;;;;11.25;5.85;;;;;;;;;;5094977;28;20171;-87
2023/02/09 03:11:28;;;;;;;11.70;5.57;;;;;;;;;;5094931;28;20175;-86
2023/02/09 03:14:53;;;;;;;10.65;5.10;;;;;;;;;;5083630;28;20210;-87
2023/02/09 03:18:19;;;;;;;12.35;5.85;;;;;;;;;;5083901;28;20175;-86
2023/02/09 03:21:44;;;;;;;9.25;5.13;;;;;;;;;;5095031;28;20179;-85
2023/02/09 03:24:58;;;;;;;9.13;5.05;;;;;;;;;;5095002;28;20211;-87
2023/02/09 03:28:15;;;;;;;8.45;5.00;;;;;;;;;;5071308;28;20206;-86
2023/02/09 03:31:21;;;;;;;10.18;5.75;;;;;;;;;;5071011;28;20175;-86
2023/02/09 03:34:26;;;;;;;8.02;5.00;;;;;;;;;;5071414;28;20689;-86
2023/02/09 03:37:29;;;;;;;11.90;5.35;;;;;;;;;;5082368;28;20519;-86
2023/02/09 03:40:34;;;;;;;10.95;5.15;;;;;;;;;;5071474;28;20198;-86
2023/02/09 03:47:06;;;;;;;10.23;4.78;;;;;;;;;;5082862;28;20184;-86
2023/02/09 03:50:10;;;;;;;10.07;5.75;;;;;;;;;;5075294;28;20179;-86
2023/02/09 03:53:15;;;;;;;11.00;5.47;;;;;;;;;;5086918;28;20562;-86
2023/02/09 03:56:23;;;;;;;12.27;5.25;;;;;;;;;;5074976;28;20183;-86
2023/02/09 03:59:28;;;;;;;9.38;5.05;;;;;;;;;;5074534;28;20206;-86
2023/02/09 04:02:32;;;;;;;11.93;5.38;;;;;;;;;;5098293;28;20179;-87
2023/02/09 04:05:36;;;;;;;11.05;5.80;;;;;;;;;;5087289;28;20198;-86
2023/02/09 04:08:42;;;;;;;9.90;5.32;;;;;;;;;;5086677;28;20190;-87
2023/02/09 04:11:46;;;;;;;10.85;5.60;;;;;;;;;;5074796;28;20179;-86
2023/02/09 04:14:50;;;;;;;9.75;5.72;;;;;;;;;;5086468;28;20218;-87
2023/02/09 04:17:54;;;;;;;13.73;6.07;;;;;;;;;;5097662;28;20190;-86
2023/02/09 04:20:58;;;;;;;8.75;5.38;;;;;;;;;;5084846;28;20175;-85
2023/02/09 04:24:03;;;;;;;9.65;5.13;;;;;;;;;;5096313;28;20689;-85
2023/02/09 04:27:07;;;;;;;11.52;5.30;;;;;;;;;;5092464;28;20191;-88
2023/02/09 04:30:12;;;;;;;9.95;5.20;;;;;;;;;;5092805;28;20175;-86
2023/02/09 04:33:16;;;;;;;10.48;5.13;;;;;;;;;;5073910;28;20554;-85
2023/02/09 04:36:22;;;;;;;13.15;5.43;;;;;;;;;;5073586;28;20183;-86
2023/02/09 04:39:26;;;;;;;10.00;5.35;;;;;;;;;;5074012;28;20207;-87
2023/02/09 04:42:31;;;;;;;11.82;5.40;;;;;;;;;;5086985;28;20531;-85
2023/02/09 04:45:37;;;;;;;10.10;4.82;;;;;;;;;;5078403;28;20519;-87
2023/02/09 04:48:41;;;;;;;8.93;4.90;;;;;;;;;;5089288;28;20547;-86
2023/02/09 04:51:46;;;;;;;10.93;5.55;;;;;;;;;;5084618;28;20194;-85
2023/02/09 04:54:50;;;;;;;10.35;5.53;;;;;;;;;;5086221;28;20214;-86
2023/02/09 05:01:20;;;;;;;11.68;5.50;;;;;;;;;;5103745;28;20171;-86
2023/02/09 05:04:24;;;;;;;10.10;5.80;;;;;;;;;;5074622;28;20210;-85
2023/02/09 05:07:28;;;;;;;12.15;5.72;;;;;;;;;;5100906;28;20182;-88
2023/02/09 05:10:33;;;;;;;9.98;5.70;;;;;;;;;;5073880;28;20175;-86
2023/02/09 05:13:38;;;;;;;11.90;5.68;;;;;;;;;;5074310;28;20211;-87
2023/02/09 05:16:42;;;;;;;11.52;5.90;;;;;;;;;;5073491;28;20182;-86
2023/02/09 05:19:47;;;;;;;12.30;6.13;;;;;;;;;;5097295;28;20697;-85
2023/02/09 05:22:51;;;;;;;16.25;7.95;;;;;;;;;;5083213;28;20210;-87
2023/02/09 05:25:55;;;;;;;11.65;6.05;;;;;;;;;;5085356;28;20179;-86
2023/02/09 05:28:59;;;;;;;14.10;6.05;;;;;;;;;;5085429;28;20202;-86
2023/02/09 05:32:04;;;;;;;12.63;6.72;;;;;;;;;;5095308;28;20519;-87
2023/02/09 05:35:08;;;;;;;10.85;6.15;;;;;;;;;;5094595;28;20178;-85
2023/02/09 05:38:12;;;;;;;9.70;5.63;;;;;;;;;;5071906;28;20186;-85
2023/02/09 05:44:39;;;;;;;11.18;5.75;;;;;;;;;;5098021;28;20214;-87
2023/02/09 05:47:44;;;;;;;13.38;6.93;;;;;;;;;;5074812;28;20206;-85
2023/02/09 05:50:48;;;;;;;15.07;6.68;;;;;;;;;;5083122;28;20184;-87
2023/02/09 05:53:53;;;;;;;13.57;6.03;;;;;;;;;;5071554;28;20701;-87
2023/02/09 05:56:57;;;;;;;10.70;5.25;;;;;;;;;;5070903;28;20178;-87
2023/02/09 06:00:03;;;;;;;12.43;6.47;;;;;;;;;;5082470;28;20206;-87
2023/02/09 06:03:15;;;;;;;10.55;6.05;;;;;;;;;;5083700;28;20214;-87
2023/02/09 06:06:20;;;;;;;12.25;5.68;;;;;;;;;;5094031;28;20528;-87
2023/02/09 06:09:24;;;;;;;15.27;7.60;;;;;;;;;;5071010;28;20175;-86
2023/02/09 06:12:29;;;;;;;15.20;6.75;;;;;;;;;;5094248;28;20179;-85
2023/02/09 06:15:33;;;;;;;11.40;6.00;;;;;;;;;;5082454;28;20527;-87
2023/02/09 06:18:37;;;;;;;11.82;5.95;;;;;;;;;;5082490;28;20174;-87
2023/02/09 06:21:42;;;;;;;13.57;6.50;;;;;;;;;;5071070;28;20519;-85
2023/02/09 06:24:46;;;;;;;11.00;5.25;;;;;;;;;;5083486;28;20214;-86
2023/02/09 06:27:50;;;;;;;10.90;5.47;;;;;;;;;;5095677;28;20531;-87
2023/02/09 06:30:54;;;;;;;9.70;5.00;;;;;;;;;;5079586;28;20515;-87
2023/02/09 06:33:59;;;;;;;14.27;5.68;;;;;;;;;;5090615;28;20215;-86
2023/02/09 06:37:03;;;;;;;13.18;6.68;;;;;;;;;;5089589;28;20171;-87
2023/02/09 06:40:08;;;;;;;17.83;8.35;;;;;;;;;;5081934;28;20670;-87
2023/02/09 06:43:12;;;;;;;46.67;18.10;;;;;;;;;;5082733;28;20218;-86
2023/02/09 06:46:16;;;;;;;23.85;11.60;;;;;;;;;;5071172;28;20194;-87
2023/02/09 06:49:22;;;;;;;15.15;7.25;;;;;;;;;;5097908;28;20197;-86
2023/02/09 06:52:26;;;;;;;20.52;8.07;;;;;;;;;;5095640;28;20166;-87
2023/02/09 06:55:32;;;;;;;25.48;11.15;;;;;;;;;;5079306;28;20170;-86
2023/02/09 06:58:37;;;;;;;17.42;8.60;;;;;;;;;;5078468;28;20573;-87
2023/02/09 07:01:41;;;;;;;19.08;9.65;;;;;;;;;;5090419;28;20183;-86
2023/02/09 07:04:45;;;;;;;17.38;8.73;;;;;;;;;;5084633;28;20698;-86
2023/02/09 07:07:50;;;;;;;24.10;11.13;;;;;;;;;;5093564;28;20191;-86
2023/02/09 07:10:54;;;;;;;25.15;12.43;;;;;;;;;;5085248;28;20668;-86
2023/02/09 07:13:59;;;;;;;21.65;11.30;;;;;;;;;;5083215;28;20218;-85
2023/02/09 07:17:03;;;;;;;15.77;8.10;;;;;;;;;;5093177;28;20186;-86
2023/02/09 07:20:08;;;;;;;16.75;8.63;;;;;;;;;;5070095;28;20215;-87
2023/02/09 07:23:12;;;;;;;15.85;7.70;;;;;;;;;;5085850;28;20214;-85
2023/02/09 07:26:16;;;;;;;20.35;8.63;;;;;;;;;;5077940;28;20174;-86
2023/02/09 07:29:21;;;;;;;17.03;7.30;;;;;;;;;;5076838;28;20187;-87
2023/02/09 07:32:26;;;;;;;15.07;7.70;;;;;;;;;;5101983;28;20545;-86
2023/02/09 07:35:30;;;;;;;12.17;7.50;;;;;;;;;;5102693;28;20600;-87
2023/02/09 07:38:35;;;;;;;15.20;7.40;;;;;;;;;;5093917;28;20886;-87
2023/02/09 07:41:40;;;;;;;15.90;8.83;;;;;;;;;;5105033;28;20546;-86
2023/02/09 07:44:44;;;;;;;16.77;8.17;;;;;;;;;;5084686;28;21012;-87
2023/02/09 07:47:48;;;;;;;13.73;8.20;;;;;;;;;;5073416;28;20608;-87
2023/02/09 07:50:52;;;;;;;15.20;7.70;;;;;;;;;;5074524;28;20600;-86
2023/02/09 07:53:58;;;;;;;13.67;7.53;;;;;;;;;;5097227;28;20635;-87
2023/02/09 07:57:02;;;;;;;11.13;7.00;;;;;;;;;;5074292;28;20545;-86
2023/02/09 08:00:07;;;;;;;12.13;6.53;;;;;;;;;;5086070;28;20664;-87
2023/02/09 08:03:22;;;;;;;14.83;7.77;;;;;;;;;;5092651;28;20620;-86
2023/02/09 08:06:44;;;;;;;14.60;7.23;;;;;;;;;;5102911;28;20957;-88
2023/02/09 08:09:48;;;;;;;13.87;7.27;;;;;;;;;;5089387;28;20878;-87
2023/02/09 08:13:01;;;;;;;14.33;7.30;;;;;;;;;;5085601;28;20616;-86
2023/02/09 08:16:10;;;;;;;11.23;7.03;;;;;;;;;;5090007;28;20588;-86
2023/02/09 08:19:18;;;;;;;15.77;7.77;;;;;;;;;;5100445;28;20545;-86
2023/02/09 08:22:24;;;;;;;15.33;8.37;;;;;;;;;;5096827;28;20755;-86
2023/02/09 08:25:28;;;;;;;15.43;7.33;;;;;;;;;;5095530;28;20549;-87
2023/02/09 08:28:32;;;;;;;15.43;9.00;;;;;;;;;;5084012;28;20554;-86
2023/02/09 08:31:37;;;;;;;13.53;8.23;;;;;;;;;;5084507;28;21130;-87
2023/02/09 08:34:41;;;;;;;16.33;9.37;;;;;;;;;;5082970;28;20624;-87
2023/02/09 08:37:45;;;;;;;17.27;10.43;;;;;;;;;;5095692;28;20549;-87
2023/02/09 08:40:49;;;;;;;17.77;9.80;;;;;;;;;;5072216;28;20628;-87
2023/02/09 08:43:53;;;;;;;17.33;10.10;;;;;;;;;;5072048;28;20620;-87
2023/02/09 08:46:57;;;;;;;20.47;11.20;;;;;;;;;;5083296;28;20541;-87
2023/02/09 08:50:01;;;;;;;22.03;11.40;;;;;;;;;;5071635;28;20545;-87
2023/02/09 08:53:06;;;;;;;17.37;10.80;;;;;;;;;;5096202;28;20615;-86
2023/02/09 08:56:10;;;;;;;19.07;11.10;;;;;;;;;;5085354;28;20549;-87
2023/02/09 08:59:15;;;;;;;16.37;10.20;;;;;;;;;;5075628;28;20616;-87
2023/02/09 09:02:19;;;;;;;19.77;9.70;;;;;;;;;;5074735;28;20558;-87
2023/02/09 09:05:23;;;;;;;17.00;10.30;;;;;;;;;;5071568;28;20545;-87
2023/02/09 09:08:28;;;;;;;21.00;10.47;;;;;;;;;;5071980;28;20553;-86
2023/02/09 09:11:32;;;;;;;18.03;10.67;;;;;;;;;;5083754;28;20540;-86
2023/02/09 09:14:37;;;;;;;22.37;13.27;;;;;;;;;;5096260;28;20621;-86
2023/02/09 09:17:41;;;;;;;24.60;13.57;;;;;;;;;;5084374;28;20541;-86
2023/02/09 09:20:45;;;;;;;25.60;14.17;;;;;;;;;;5071591;28;20644;-88
2023/02/09 09:23:49;;;;;;;22.17;12.97;;;;;;;;;;5071059;28;20620;-87
2023/02/09 09:26:54;;;;;;;22.03;12.43;;;;;;;;;;5071925;28;20545;-86
2023/02/09 09:29:58;;;;;;;19.70;12.50;;;;;;;;;;5073513;28;20913;-87
2023/02/09 09:33:03;;;;;;;24.57;13.37;;;;;;;;;;5071844;28;21170;-87
2023/02/09 09:36:08;;;;;;;21.47;13.87;;;;;;;;;;5097826;28;20589;-87
2023/02/09 09:39:12;;;;;;;24.40;14.33;;;;;;;;;;5082489;28;21174;-86
2023/02/09 09:42:37;;;;;;;26.30;16.03;;;;;;;;;;5083921;28;20562;-85
2023/02/09 09:45:41;;;;;;;26.37;14.87;;;;;;;;;;5083677;28;20553;-88
2023/02/09 09:48:52;;;;;;;24.83;14.77;;;;;;;;;;5083716;28;21159;-86
2023/02/09 09:52:04;;;;;;;27.47;14.40;;;;;;;;;;5083358;28;20550;-86
2023/02/09 09:55:25;;;;;;;24.50;14.20;;;;;;;;;;5095318;28;20546;-86
2023/02/09 09:58:30;;;;;;;25.57;15.00;;;;;;;;;;5084773;28;21123;-87
2023/02/09 10:01:34;;;;;;;26.30;15.33;;;;;;;;;;5097478;28;21186;-87
2023/02/09 10:04:39;;;;;;;22.57;13.97;;;;;;;;;;5082359;28;20613;-86
2023/02/09 10:07:50;;;;;;;24.80;15.33;;;;;;;;;;5071686;28;20546;-86
2023/02/09 10:10:57;;;;;;;26.13;15.30;;;;;;;;;;5094551;28;20541;-87
2023/02/09 10:14:02;;;;;;;26.83;15.00;;;;;;;;;;5081841;28;20629;-87
2023/02/09 10:17:06;;;;;;;32.10;15.70;;;;;;;;;;5081721;28;20588;-87
2023/02/09 10:20:11;;;;;;;21.70;14.37;;;;;;;;;;5081974;28;20580;-87
2023/02/09 10:23:23;;;;;;;29.30;17.30;;;;;;;;;;5081721;28;20609;-87
2023/02/09 10:26:30;;;;;;;30.67;15.60;;;;;;;;;;5081423;28;20183;-87
2023/02/09 10:29:35;;;;;;;25.03;15.87;;;;;;;;;;5081800;28;20179;-88
2023/02/09 10:32:45;;;;;;;26.60;16.33;;;;;;;;;;5070025;28;20185;-87
2023/02/09 10:35:52;;;;;;;23.50;15.47;;;;;;;;;;5093089;28;20685;-88
2023/02/09 10:39:14;;;;;;;24.07;15.73;;;;;;;;;;5093115;28;20179;-88
2023/02/09 10:42:25;;;;;;;28.43;17.50;;;;;;;;;;5069815;28;20206;-88
2023/02/09 10:45:50;;;;;;;23.70;15.77;;;;;;;;;;5069891;28;20183;-88
2023/02/09 10:48:54;;;;;;;24.60;15.90;;;;;;;;;;5081390;28;20674;-88
2023/02/09 10:52:11;;;;;;;27.23;17.07;;;;;;;;;;5081247;28;20171;-88
2023/02/09 10:55:20;;;;;;;28.10;17.10;;;;;;;;;;5069693;28;20175;-87
2023/02/09 10:58:28;;;;;;;26.07;17.27;;;;;;;;;;5080910;28;20528;-88
2023/02/09 11:01:40;;;;;;;25.17;16.37;;;;;;;;;;5092657;28;20207;-88
2023/02/09 11:04:46;;;;;;;24.80;16.10;;;;;;;;;;5093068;28;20214;-88
2023/02/09 11:07:56;;;;;;;23.90;16.40;;;;;;;;;;5069532;28;20170;-88
2023/02/09 11:11:18;;;;;;;23.00;15.77;;;;;;;;;;5080794;28;20167;-87
2023/02/09 11:14:22;;;;;;;25.70;16.47;;;;;;;;;;5080968;28;20206;-88
2023/02/09 11:17:35;;;;;;;25.40;16.67;;;;;;;;;;5080945;28;20175;-87
2023/02/09 11:20:50;;;;;;;25.73;16.70;;;;;;;;;;5081156;28;20690;-88
2023/02/09 11:24:19;;;;;;;25.30;16.87;;;;;;;;;;5080792;28;20697;-88
2023/02/09 11:27:49;;;;;;;22.90;16.40;;;;;;;;;;5080898;28;20171;-88
2023/02/09 11:30:56;;;;;;;25.37;16.77;;;;;;;;;;5092363;28;20183;-87
2023/02/09 11:34:16;;;;;;;29.80;18.20;;;;;;;;;;5080685;28;20211;-87
2023/02/09 11:37:35;;;;;;;28.20;17.93;;;;;;;;;;5080869;28;20175;-88
2023/02/09 11:40:47;;;;;;;28.27;18.30;;;;;;;;;;5080410;28;20175;-87
2023/02/09 11:43:54;;;;;;;28.03;17.90;;;;;;;;;;5092116;28;20211;-87
2023/02/09 11:47:08;;;;;;;30.73;18.53;;;;;;;;;;5080495;28;20178;-87
2023/02/09 11:50:26;;;;;;;32.43;18.77;;;;;;;;;;5092941;28;20190;-87
2023/02/09 11:53:54;;;;;;;35.83;21.00;;;;;;;;;;5069041;28;20211;-88
2023/02/09 11:57:01;;;;;;;28.80;18.20;;;;;;;;;;5086331;28;20187;-88
2023/02/09 12:00:10;;;;;;;30.97;18.30;;;;;;;;;;5068937;28;20175;-88
2023/02/09 12:03:20;;;;;;;32.53;19.37;;;;;;;;;;5091939;28;20211;-88
2023/02/09 12:06:24;;;;;;;31.43;18.47;;;;;;;;;;5068960;28;20650;-88
2023/02/09 12:09:43;;;;;;;33.77;20.70;;;;;;;;;;5071696;28;20175;-87
2023/02/09 12:13:01;;;;;;;32.43;19.63;;;;;;;;;;5084070;28;20631;-88
2023/02/09 12:16:27;;;;;;;31.07;20.17;;;;;;;;;;5072528;28;20187;-88
2023/02/09 12:19:42;;;;;;;36.63;20.27;;;;;;;;;;5072276;28;20179;-88
2023/02/09 12:22:59;;;;;;;33.23;19.53;;;;;;;;;;5072039;28;20210;-88
2023/02/09 12:26:10;;;;;;;31.33;18.47;;;;;;;;;;5083949;28;20531;-87
2023/02/09 12:29:35;;;;;;;31.77;19.47;;;;;;;;;;5073604;28;20550;-87
2023/02/09 12:32:43;;;;;;;29.67;19.20;;;;;;;;;;5096847;28;20183;-86
2023/02/09 12:36:09;;;;;;;30.10;18.77;;;;;;;;;;5084638;28;20195;-87
2023/02/09 12:39:25;;;;;;;31.03;18.43;;;;;;;;;;5084608;28;20527;-86
2023/02/09 12:43:03;;;;;;;30.67;18.43;;;;;;;;;;5084229;28;20575;-87
2023/02/09 12:46:16;;;;;;;31.40;18.40;;;;;;;;;;5073551;28;20638;-87
2023/02/09 12:49:27;;;;;;;29.60;18.33;;;;;;;;;;5084136;28;20183;-87
2023/02/09 12:52:31;;;;;;;28.70;17.30;;;;;;;;;;5084162;28;20171;-86
2023/02/09 12:55:36;;;;;;;27.37;18.10;;;;;;;;;;5072891;28;20650;-86
2023/02/09 12:58:44;;;;;;;28.87;17.63;;;;;;;;;;5095517;28;20175;-88
2023/02/09 13:02:06;;;;;;;27.80;17.07;;;;;;;;;;5084524;28;20207;-87
2023/02/09 13:05:22;;;;;;;27.07;18.20;;;;;;;;;;5073146;28;20634;-86
2023/02/09 13:08:32;;;;;;;26.83;17.70;;;;;;;;;;5095924;28;20183;-87
2023/02/09 13:11:50;;;;;;;28.70;17.50;;;;;;;;;;5072991;28;20167;-88
2023/02/09 13:14:54;;;;;;;23.67;15.93;;;;;;;;;;5073142;28;20179;-86
2023/02/09 13:18:13;;;;;;;27.63;17.47;;;;;;;;;;5084001;28;20183;-87
2023/02/09 13:21:55;;;;;;;29.70;18.20;;;;;;;;;;5096562;28;20207;-87
2023/02/09 13:25:28;;;;;;;25.67;17.43;;;;;;;;;;5084249;28;20183;-86
2023/02/09 13:28:32;;;;;;;25.60;16.57;;;;;;;;;;5084106;28;20642;-87
2023/02/09 13:31:39;;;;;;;27.70;17.73;;;;;;;;;;5072755;28;20190;-88
2023/02/09 13:34:57;;;;;;;26.20;18.17;;;;;;;;;;5083739;28;20726;-86
2023/02/09 13:38:14;;;;;;;29.77;19.50;;;;;;;;;;5072560;28;20179;-87
2023/02/09 13:41:25;;;;;;;30.97;19.53;;;;;;;;;;5095112;28;20211;-87
2023/02/09 13:44:30;;;;;;;31.20;19.40;;;;;;;;;;5083562;28;20210;-86
2023/02/09 13:47:41;;;;;;;31.30;19.33;;;;;;;;;;5095309;28;20198;-87
2023/02/09 13:50:46;;;;;;;27.07;18.47;;;;;;;;;;5072016;28;20519;-86
2023/02/09 13:53:58;;;;;;;32.83;19.30;;;;;;;;;;5083128;28;20551;-86
2023/02/09 13:57:08;;;;;;;29.40;19.33;;;;;;;;;;5094745;28;20187;-87
2023/02/09 14:00:35;;;;;;;32.43;20.30;;;;;;;;;;5083043;28;20174;-86
2023/02/09 14:03:46;;;;;;;25.70;18.00;;;;;;;;;;5071227;28;20214;-86
2023/02/09 14:06:53;;;;;;;29.53;18.80;;;;;;;;;;5083098;28;20170;-87
2023/02/09 14:10:05;;;;;;;30.70;18.10;;;;;;;;;;5071541;28;20179;-86
2023/02/09 14:13:30;;;;;;;31.07;19.50;;;;;;;;;;5082524;28;20210;-86
2023/02/09 14:16:35;;;;;;;30.97;20.00;;;;;;;;;;5071569;28;20182;-87
2023/02/09 14:19:46;;;;;;;29.17;20.30;;;;;;;;;;5082693;28;20179;-86
2023/02/09 14:22:56;;;;;;;36.27;20.30;;;;;;;;;;5083604;28;20223;-86
2023/02/09 14:26:03;;;;;;;29.93;19.43;;;;;;;;;;5083221;28;20187;-87
2023/02/09 14:29:31;;;;;;;32.90;20.73;;;;;;;;;;5094085;28;20535;-86
2023/02/09 14:32:39;;;;;;;31.10;19.17;;;;;;;;;;5082261;28;20171;-88
2023/02/09 14:35:44;;;;;;;31.40;19.80;;;;;;;;;;5094688;28;20170;-88
2023/02/09 14:38:50;;;;;;;28.43;18.47;;;;;;;;;;5082852;28;20174;-86
2023/02/09 14:42:06;;;;;;;31.73;19.57;;;;;;;;;;5083100;28;20686;-87
2023/02/09 14:45:13;;;;;;;27.43;17.77;;;;;;;;;;5095132;28;20187;-88
2023/02/09 14:48:23;;;;;;;28.03;18.70;;;;;;;;;;5082642;28;20194;-87
2023/02/09 14:51:28;;;;;;;31.47;19.50;;;;;;;;;;5083057;28;20310;-86
2023/02/09 14:54:35;;;;;;;28.30;19.30;;;;;;;;;;5082601;28;20215;-86
2023/02/09 14:57:39;;;;;;;42.47;19.93;;;;;;;;;;5082623;28;20187;-88
2023/02/09 15:00:43;;;;;;;29.43;17.90;;;;;;;;;;5071492;28;20178;-87
2023/02/09 15:03:47;;;;;;;32.43;18.33;;;;;;;;;;5082324;28;20693;-87
2023/02/09 15:06:59;;;;;;;28.20;18.70;;;;;;;;;;5082562;28;20182;-87
2023/02/09 15:10:12;;;;;;;28.40;18.20;;;;;;;;;;5094298;28;20190;-86
2023/02/09 15:13:16;;;;;;;27.37;18.17;;;;;;;;;;5070622;28;20211;-87
2023/02/09 15:16:20;;;;;;;28.57;18.63;;;;;;;;;;5082516;28;20520;-86
2023/02/09 15:19:25;;;;;;;31.03;20.07;;;;;;;;;;5082542;28;20178;-87
2023/02/09 15:22:30;;;;;;;28.13;17.80;;;;;;;;;;5082229;28;20203;-87
2023/02/09 15:25:35;;;;;;;34.70;19.30;;;;;;;;;;5082892;28;20171;-86
2023/02/09 15:28:38;;;;;;;33.87;21.23;;;;;;;;;;5082290;28;20531;-87
2023/02/09 15:31:43;;;;;;;31.10;20.63;;;;;;;;;;5082495;28;20179;-87
2023/02/09 15:34:47;;;;;;;43.20;23.13;;;;;;;;;;5081928;28;20689;-87
2023/02/09 15:37:54;;;;;;;33.37;20.67;;;;;;;;;;5070579;28;20179;-87
2023/02/09 15:47:48;;;;;;;34.10;20.20;;;;;;;;;;5097636;28;20194;-86
2023/02/09 15:50:54;;;;;;;36.70;22.60;;;;;;;;;;5097260;28;20179;-86
2023/02/09 15:54:00;;;;;;;36.67;22.40;;;;;;;;;;5086191;28;20207;-86
2023/02/09 15:57:08;;;;;;;41.20;25.13;;;;;;;;;;5074570;28;20178;-86
2023/02/09 16:00:24;;;;;;;36.40;22.67;;;;;;;;;;5085536;28;20516;-87
2023/02/09 16:03:30;;;;;;;44.23;24.43;;;;;;;;;;5097161;28;20227;-87
2023/02/09 16:06:34;;;;;;;43.10;22.13;;;;;;;;;;5086299;28;20174;-87
2023/02/09 16:09:42;;;;;;;46.00;21.63;;;;;;;;;;5073832;28;20540;-87
2023/02/09 16:12:46;;;;;;;36.60;21.37;;;;;;;;;;5096748;28;20171;-88
2023/02/09 16:15:50;;;;;;;38.37;21.03;;;;;;;;;;5073999;28;20553;-86
2023/02/09 16:18:54;;;;;;;41.33;21.13;;;;;;;;;;5097289;28;20545;-88
2023/02/09 16:22:03;;;;;;;38.07;21.37;;;;;;;;;;5097641;28;20559;-86
2023/02/09 16:25:17;;;;;;;45.70;22.77;;;;;;;;;;5074075;28;20584;-86
2023/02/09 16:28:22;;;;;;;41.30;22.97;;;;;;;;;;5085136;28;20541;-86
2023/02/09 16:31:26;;;;;;;41.30;23.10;;;;;;;;;;5096647;28;20588;-86
2023/02/09 16:34:30;;;;;;;40.73;23.80;;;;;;;;;;5085306;28;20624;-86
2023/02/09 16:37:34;;;;;;;39.50;24.43;;;;;;;;;;5085478;28;20560;-86
2023/02/09 16:40:39;;;;;;;44.77;25.23;;;;;;;;;;5084962;28;20548;-86
2023/02/09 16:43:43;;;;;;;42.33;24.00;;;;;;;;;;5096307;28;20663;-86
2023/02/09 16:46:50;;;;;;;46.20;27.03;;;;;;;;;;5084570;28;20552;-87
2023/02/09 16:49:57;;;;;;;50.90;28.33;;;;;;;;;;5097004;28;20556;-86
2023/02/09 16:53:13;;;;;;;48.63;25.13;;;;;;;;;;5073663;28;20616;-87
2023/02/09 16:56:18;;;;;;;46.43;23.80;;;;;;;;;;5096762;28;20560;-88
2023/02/09 16:59:23;;;;;;;40.13;22.93;;;;;;;;;;5096307;28;20595;-87
2023/02/09 17:02:47;;;;;;;44.83;23.67;;;;;;;;;;5084788;28;20607;-87
2023/02/09 17:05:54;;;;;;;49.47;25.97;;;;;;;;;;5084582;28;20552;-86
2023/02/09 17:08:58;;;;;;;85.40;41.57;;;;;;;;;;5072979;28;20600;-86
2023/02/09 17:12:02;;;;;;;132.27;60.40;;;;;;;;;;5084588;28;20560;-86
2023/02/09 17:15:06;;;;;;;106.00;49.80;;;;;;;;;;5083979;28;20553;-87
2023/02/09 17:18:16;;;;;;;68.90;33.43;;;;;;;;;;5073015;28;20564;-86
2023/02/09 17:21:22;;;;;;;50.47;27.33;;;;;;;;;;5084032;28;20553;-86
2023/02/09 17:24:26;;;;;;;44.17;24.97;;;;;;;;;;5095441;28;20667;-86
2023/02/09 17:27:31;;;;;;;52.07;27.13;;;;;;;;;;5083744;28;20932;-86
2023/02/09 17:30:36;;;;;;;68.30;32.63;;;;;;;;;;5083921;28;20604;-87
2023/02/09 17:33:40;;;;;;;69.70;34.90;;;;;;;;;;5095720;28;21193;-87
2023/02/09 17:36:44;;;;;;;62.10;31.63;;;;;;;;;;5095431;28;20607;-86
2023/02/09 17:39:49;;;;;;;57.90;30.40;;;;;;;;;;5083654;28;20599;-86
2023/02/09 17:42:55;;;;;;;55.93;28.33;;;;;;;;;;5083886;28;20655;-86
2023/02/09 17:45:59;;;;;;;51.93;26.97;;;;;;;;;;5072861;28;20905;-86
2023/02/09 17:49:03;;;;;;;52.20;28.83;;;;;;;;;;5083499;28;20623;-86
2023/02/09 17:52:14;;;;;;;49.30;27.80;;;;;;;;;;5084224;28;20979;-87
2023/02/09 17:55:22;;;;;;;47.83;26.70;;;;;;;;;;5084349;28;20556;-86
2023/02/09 17:58:26;;;;;;;49.97;26.47;;;;;;;;;;5083506;28;20548;-86
2023/02/09 18:01:32;;;;;;;52.20;26.67;;;;;;;;;;5071918;28;20560;-86
2023/02/09 18:04:36;;;;;;;56.03;27.77;;;;;;;;;;5083035;28;20655;-86
2023/02/09 18:07:40;;;;;;;48.93;25.37;;;;;;;;;;5094393;28;21110;-86
2023/02/09 18:10:45;;;;;;;48.17;25.73;;;;;;;;;;5072529;28;20548;-86
2023/02/09 18:13:49;;;;;;;54.20;26.73;;;;;;;;;;5094757;28;20627;-86
2023/02/09 18:16:54;;;;;;;48.53;26.63;;;;;;;;;;5083758;28;20552;-86
2023/02/09 18:19:58;;;;;;;55.10;25.83;;;;;;;;;;5083848;28;20558;-87
2023/02/09 18:23:03;;;;;;;47.27;25.27;;;;;;;;;;5082859;28;21065;-86
2023/02/09 18:26:08;;;;;;;48.80;25.33;;;;;;;;;;5083021;28;20600;-86
2023/02/09 18:29:13;;;;;;;43.10;24.07;;;;;;;;;;5083162;28;20556;-86
2023/02/09 18:32:16;;;;;;;47.80;25.47;;;;;;;;;;5071729;28;20952;-86
2023/02/09 18:35:25;;;;;;;44.87;25.23;;;;;;;;;;5071755;28;21200;-86
2023/02/09 18:38:30;;;;;;;50.93;26.23;;;;;;;;;;5071578;28;20560;-86
2023/02/09 18:41:34;;;;;;;53.37;26.00;;;;;;;;;;5082948;28;20553;-87
2023/02/09 18:44:38;;;;;;;47.40;24.47;;;;;;;;;;5083011;28;20671;-86